Time;durP1;ratioP1;P1;durP2;ratioP2;P2;SDS_P1;SDS_P2;PMS_P1;PMS_P2;Temp;Humidity;BMP_temperature;BMP_pressure;BME280_temperature;BME280_humidity;BME280_pressure;Samples;Min_cycle;Max_cycle;Signal;HPM_P1;HPM_P2
2022/04/26 03:37:44;;;;;;;17.00;9.18;;;;;;;6.22;76.25;100498.37;1735637;80;21486;-70
2022/04/26 03:40:10;;;;;;;16.40;9.40;;;;;;;6.20;76.26;100509.58;1736610;80;21058;-70
2022/04/26 03:42:36;;;;;;;15.68;8.35;;;;;;;6.18;76.27;100515.02;1736260;82;21372;-70
2022/04/26 03:45:03;;;;;;;17.32;9.25;;;;;;;6.17;76.26;100522.61;1738288;80;21144;-70
2022/04/26 03:47:29;;;;;;;17.17;9.18;;;;;;;6.16;76.30;100518.28;1739755;82;21934;-70
2022/04/26 03:49:55;;;;;;;13.85;8.10;;;;;;;6.15;76.34;100519.28;1739891;80;21695;-70
2022/04/26 03:52:21;;;;;;;12.98;7.72;;;;;;;6.16;76.35;100519.61;1740032;82;21033;-71
2022/04/26 03:54:47;;;;;;;15.15;8.35;;;;;;;6.15;76.38;100517.11;1738053;80;21011;-70
2022/04/26 03:57:13;;;;;;;14.83;8.03;;;;;;;6.15;76.39;100520.61;1738334;80;21050;-70
2022/04/26 03:59:39;;;;;;;14.53;7.47;;;;;;;6.14;76.40;100521.56;1739841;82;21164;-70
2022/04/26 04:02:05;;;;;;;15.48;9.43;;;;;;;6.14;76.40;100522.89;1739758;82;20994;-70
2022/04/26 04:04:31;;;;;;;14.25;10.30;;;;;;;6.14;76.40;100526.02;1739982;81;20950;-70
2022/04/26 04:06:57;;;;;;;14.93;10.53;;;;;;;6.14;76.42;100524.22;1738802;80;21897;-70
2022/04/26 04:09:23;;;;;;;15.40;10.15;;;;;;;6.15;76.43;100529.88;1735965;82;21532;-70
2022/04/26 04:11:49;;;;;;;13.65;9.90;;;;;;;6.16;76.43;100535.49;1739037;80;21247;-70
2022/04/26 04:14:15;;;;;;;18.48;12.73;;;;;;;6.16;76.44;100534.17;1739065;80;21030;-70
2022/04/26 04:16:41;;;;;;;16.73;11.35;;;;;;;6.17;76.44;100535.01;1735637;82;20923;-70
2022/04/26 04:19:18;;;;;;;19.45;12.43;;;;;;;6.17;76.43;100535.85;1735970;80;21058;-71
2022/04/26 04:21:45;;;;;;;19.85;12.15;;;;;;;6.17;76.42;100539.83;1736259;82;21070;-70
2022/04/26 04:24:13;;;;;;;15.30;11.18;;;;;;;6.17;76.42;100541.14;1736192;82;21173;-70
2022/04/26 04:26:39;;;;;;;14.78;10.50;;;;;;;6.15;76.41;100541.78;1736154;82;20994;-70
2022/04/26 04:29:05;;;;;;;17.82;11.22;;;;;;;6.15;76.40;100543.11;1740387;80;21014;-70
2022/04/26 04:31:33;;;;;;;19.32;10.90;;;;;;;6.16;76.40;100548.73;1737263;80;21062;-70
2022/04/26 04:34:01;;;;;;;19.95;10.53;;;;;;;6.17;76.38;100545.12;1736329;82;21764;-71
2022/04/26 04:36:27;;;;;;;14.33;9.03;;;;;;;6.19;76.41;100545.83;1736266;82;21106;-71
2022/04/26 04:38:54;;;;;;;22.60;10.68;;;;;;;6.20;76.40;100546.64;1736031;82;21061;-71
2022/04/26 04:41:20;;;;;;;21.17;10.93;;;;;;;6.19;76.37;100551.13;1736171;82;21015;-70
2022/04/26 04:43:46;;;;;;;19.73;10.72;;;;;;;6.23;76.37;100552.50;1740636;80;20978;-71
2022/04/26 04:46:12;;;;;;;27.87;15.10;;;;;;;6.26;76.36;100549.57;1739532;82;21053;-70
2022/04/26 04:48:38;;;;;;;24.63;14.95;;;;;;;6.29;76.35;100553.78;1739991;82;21132;-70
2022/04/26 04:51:04;;;;;;;26.35;14.63;;;;;;;6.31;76.32;100557.11;1738990;80;20908;-71
2022/04/26 04:53:30;;;;;;;25.17;13.25;;;;;;;6.33;76.31;100562.61;1736138;82;20931;-70
2022/04/26 04:55:56;;;;;;;35.13;16.25;;;;;;;6.38;76.31;100558.23;1735655;80;21042;-70
2022/04/26 04:58:22;;;;;;;23.70;14.87;;;;;;;6.41;76.31;100565.41;1739802;80;20911;-71
2022/04/26 05:00:48;;;;;;;24.25;13.28;;;;;;;6.42;76.26;100565.77;1738763;80;21131;-70
2022/04/26 05:03:14;;;;;;;19.98;11.70;;;;;;;6.44;76.20;100571.75;1736047;82;20990;-70
2022/04/26 05:05:40;;;;;;;21.17;12.45;;;;;;;6.48;76.20;100573.15;1739664;80;21006;-71
2022/04/26 05:08:10;;;;;;;15.35;10.30;;;;;;;6.51;76.18;100576.84;1739596;82;20998;-70
2022/04/26 05:10:37;;;;;;;27.02;13.15;;;;;;;6.52;76.12;100571.90;1739877;80;21055;-70
2022/04/26 05:13:04;;;;;;;23.62;13.00;;;;;;;6.59;76.09;100575.30;1736182;80;21134;-71
2022/04/26 05:15:30;;;;;;;26.57;12.82;;;;;;;6.63;76.08;100572.72;1736250;82;20967;-70
2022/04/26 05:17:56;;;;;;;21.40;11.25;;;;;;;6.70;76.07;100577.81;1735817;82;21061;-71
2022/04/26 05:20:23;;;;;;;19.95;11.22;;;;;;;6.77;76.02;100582.89;1730822;81;20892;-70
2022/04/26 05:25:34;;;;;;;17.60;9.48;;;;;;;6.79;75.96;100583.61;1669924;86;21201;-70
2022/04/26 05:28:03;;;;;;;15.80;8.98;;;;;;;6.79;75.91;100589.72;1698581;82;21019;-70
2022/04/26 05:30:29;;;;;;;21.50;10.28;;;;;;;6.81;75.82;100589.11;1686193;84;21067;-70
2022/04/26 05:32:55;;;;;;;14.30;9.55;;;;;;;6.85;75.81;100588.34;1692331;83;21122;-70
2022/04/26 05:35:22;;;;;;;17.92;9.25;;;;;;;6.93;75.78;100591.12;1700869;82;21070;-70
2022/04/26 05:37:48;;;;;;;18.73;9.68;;;;;;;6.99;75.72;100582.59;1695919;84;21867;-70
2022/04/26 05:40:14;;;;;;;19.77;10.38;;;;;;;7.03;75.64;100590.62;1699099;83;21032;-70
2022/04/26 05:42:40;;;;;;;16.40;9.93;;;;;;;7.07;75.55;100588.03;1706838;82;21039;-70
2022/04/26 05:45:07;;;;;;;14.90;9.80;;;;;;;7.14;75.53;100586.48;1724900;82;21118;-70
2022/04/26 05:47:33;;;;;;;17.20;9.35;;;;;;;7.22;75.44;100593.20;1722301;82;20992;-70
2022/04/26 05:49:59;;;;;;;14.73;8.75;;;;;;;7.25;75.36;100596.05;1696126;83;21130;-70
2022/04/26 05:52:26;;;;;;;15.58;9.18;;;;;;;7.25;75.29;100599.55;1714935;82;21549;-71
2022/04/26 05:54:52;;;;;;;12.90;7.62;;;;;;;7.25;75.25;100596.90;1703319;82;21574;-70
2022/04/26 05:57:18;;;;;;;15.30;8.63;;;;;;;7.32;75.19;100596.67;1692605;84;21512;-71
2022/04/26 05:59:44;;;;;;;20.77;9.48;;;;;;;7.38;75.11;100604.56;1681910;85;21589;-70
2022/04/26 06:02:10;;;;;;;14.10;7.47;;;;;;;7.41;75.05;100602.45;1674816;85;22364;-70
2022/04/26 06:04:38;;;;;;;12.47;8.13;;;;;;;7.44;74.97;100607.47;1682385;85;20998;-71
2022/04/26 06:07:05;;;;;;;12.73;7.35;;;;;;;7.48;74.89;100610.66;1676246;84;21076;-70
2022/04/26 06:09:31;;;;;;;18.07;7.83;;;;;;;7.54;74.87;100613.57;1693153;83;21049;-70
2022/04/26 06:11:58;;;;;;;12.60;8.18;;;;;;;7.60;74.77;100610.00;1727829;82;21049;-71
2022/04/26 06:14:24;;;;;;;13.48;7.70;;;;;;;7.67;74.73;100610.58;1732158;82;21146;-71
2022/04/26 06:16:50;;;;;;;14.28;8.50;;;;;;;7.70;74.61;100614.78;1709097;82;21519;-71
2022/04/26 06:19:16;;;;;;;14.95;7.97;;;;;;;7.69;74.51;100619.73;1718756;82;21033;-71
2022/04/26 06:21:43;;;;;;;13.72;7.65;;;;;;;7.71;74.42;100616.43;1720300;81;21082;-71
2022/04/26 06:24:09;;;;;;;13.38;8.30;;;;;;;7.75;74.35;100613.83;1736010;81;21134;-70
2022/04/26 06:26:35;;;;;;;12.47;7.65;;;;;;;7.80;74.29;100612.91;1747263;81;21135;-71
2022/04/26 06:29:01;;;;;;;14.53;7.65;;;;;;;7.80;74.12;100613.75;1731779;82;21577;-71
2022/04/26 06:31:27;;;;;;;11.25;7.53;;;;;;;7.80;74.03;100613.75;1731539;82;21515;-71
2022/04/26 06:33:53;;;;;;;13.68;7.65;;;;;;;7.84;73.94;100616.95;1723063;81;20969;-71
2022/04/26 06:36:19;;;;;;;13.10;8.28;;;;;;;7.88;73.79;100617.01;1717829;83;20896;-71
2022/04/26 06:38:45;;;;;;;14.85;8.10;;;;;;;7.90;73.70;100619.02;1718319;81;21495;-71
2022/04/26 06:41:11;;;;;;;14.25;8.50;;;;;;;7.95;73.65;100619.42;1729751;81;21612;-71
2022/04/26 06:43:37;;;;;;;12.18;7.55;;;;;;;8.00;73.54;100626.44;1726013;82;21013;-71
2022/04/26 06:46:03;;;;;;;10.95;6.45;;;;;;;8.07;73.46;100620.88;1761785;81;21550;-71
2022/04/26 06:48:30;;;;;;;15.15;8.28;;;;;;;8.11;73.36;100627.56;1761813;81;20991;-71
2022/04/26 06:50:56;;;;;;;19.77;10.50;;;;;;;8.19;73.25;100632.98;1741074;80;21120;-71
2022/04/26 06:53:22;;;;;;;13.90;8.68;;;;;;;8.28;73.12;100629.45;1729388;81;20986;-71
2022/04/26 06:55:48;;;;;;;16.80;8.50;;;;;;;8.33;73.09;100627.19;1728717;83;21045;-72
2022/04/26 06:58:14;;;;;;;14.95;7.87;;;;;;;8.33;73.03;100627.68;1752750;81;21621;-71
2022/04/26 07:00:40;;;;;;;12.55;7.05;;;;;;;8.37;72.91;100621.89;1739444;81;21499;-71
2022/04/26 07:03:07;;;;;;;10.55;6.70;;;;;;;8.42;72.83;100626.28;1736224;81;21236;-71
2022/04/26 07:05:33;;;;;;;11.55;7.03;;;;;;;8.47;72.71;100628.49;1740643;81;21001;-71
2022/04/26 07:07:59;;;;;;;14.43;8.05;;;;;;;8.48;72.66;100627.00;1724564;81;21050;-71
2022/04/26 07:10:28;;;;;;;13.15;7.97;;;;;;;8.58;72.50;100632.75;1744595;80;21041;-71
2022/04/26 07:12:53;;;;;;;13.75;7.97;;;;;;;8.64;72.40;100628.15;1751082;81;20998;-71
2022/04/26 07:15:20;;;;;;;12.18;7.80;;;;;;;8.74;72.28;100638.21;1726927;81;21063;-71
2022/04/26 07:17:46;;;;;;;18.15;8.38;;;;;;;8.86;72.19;100638.33;1735486;81;21461;-71
2022/04/26 07:20:12;;;;;;;11.48;7.72;;;;;;;8.99;72.10;100636.11;1737721;81;21064;-71
2022/04/26 07:22:38;;;;;;;19.48;10.58;;;;;;;9.00;71.91;100636.46;1731390;81;21472;-71
2022/04/26 07:25:08;;;;;;;13.88;7.65;;;;;;;9.08;71.83;100635.70;1718405;81;21026;-71
2022/04/26 07:27:34;;;;;;;11.68;8.28;;;;;;;9.22;71.70;100639.94;1721267;81;21581;-71
2022/04/26 07:30:00;;;;;;;15.63;8.58;;;;;;;9.31;71.62;100635.03;1717354;82;21011;-71
2022/04/26 07:35:11;;;;;;;10.88;6.85;;;;;;;9.53;71.32;100637.15;1698754;81;21051;-71
2022/04/26 07:37:39;;;;;;;21.87;12.13;;;;;;;9.66;71.13;100638.56;1752936;79;22256;-71
2022/04/26 07:40:06;;;;;;;10.85;7.12;;;;;;;9.71;70.94;100644.27;1715954;82;21152;-71
2022/04/26 07:42:32;;;;;;;13.00;7.50;;;;;;;9.79;70.73;100646.95;1724716;81;21046;-71
2022/04/26 07:44:59;;;;;;;11.85;8.05;;;;;;;9.86;70.55;100650.64;1716381;82;21054;-72
2022/04/26 07:47:26;;;;;;;11.55;8.20;;;;;;;9.98;70.49;100653.38;1739446;80;21520;-70
2022/04/26 07:49:55;;;;;;;10.40;7.50;;;;;;;10.03;70.34;100652.39;1736549;80;21027;-70
2022/04/26 07:52:23;;;;;;;9.40;6.77;;;;;;;9.98;70.09;100655.55;1731775;80;21169;-70
2022/04/26 07:54:50;;;;;;;9.75;7.03;;;;;;;9.87;69.89;100654.50;1734362;81;21295;-71
2022/04/26 07:57:16;;;;;;;24.27;10.80;;;;;;;10.12;69.82;100655.94;1728655;80;21010;-71
2022/04/26 07:59:42;;;;;;;12.73;8.80;;;;;;;10.52;69.68;100656.08;1726409;80;21052;-70
2022/04/26 08:02:10;;;;;;;14.18;9.15;;;;;;;10.96;69.45;100662.00;1725685;80;21546;-71
2022/04/26 08:04:37;;;;;;;15.60;9.25;;;;;;;11.29;69.26;100655.67;1751867;80;21244;-71
2022/04/26 08:07:04;;;;;;;12.65;8.13;;;;;;;11.63;69.02;100661.28;1735431;80;21006;-71
2022/04/26 08:09:35;;;;;;;11.63;7.75;;;;;;;11.87;68.73;100660.75;1739058;80;21013;-71
2022/04/26 08:11:58;;;;;;;13.93;9.15;;;;;;;12.03;68.54;100662.55;1734860;80;21083;-71
2022/04/26 08:14:24;;;;;;;14.25;9.20;;;;;;;12.08;68.25;100666.84;1735509;80;21534;-71
2022/04/26 08:16:51;;;;;;;13.15;8.18;;;;;;;12.27;68.07;100665.11;1740359;80;21225;-71
2022/04/26 08:19:17;;;;;;;12.35;8.60;;;;;;;12.37;67.93;100672.41;1722426;80;21463;-71
2022/04/26 08:21:43;;;;;;;17.17;9.25;;;;;;;12.53;67.81;100668.30;1744020;80;21023;-71
2022/04/26 08:29:38;;;;;;;13.05;7.10;;;;;;;12.27;66.80;100680.31;1727510;81;21072;-71
2022/04/26 08:32:05;;;;;;;9.30;6.87;;;;;;;12.38;66.69;100679.44;1736079;80;21063;-72
2022/04/26 08:34:31;;;;;;;9.48;7.00;;;;;;;12.58;66.52;100680.32;1776217;79;21060;-72
2022/04/26 08:36:58;;;;;;;11.38;7.53;;;;;;;12.75;66.29;100681.89;1779312;79;21465;-72
2022/04/26 08:39:24;;;;;;;9.68;7.72;;;;;;;12.94;66.02;100680.10;1758406;79;21062;-72
2022/04/26 08:41:50;;;;;;;10.38;7.22;;;;;;;13.25;65.57;100683.56;1729146;81;21151;-71
2022/04/26 08:44:16;;;;;;;11.50;7.10;;;;;;;13.25;65.57;100683.56;1747406;80;21086;-71
2022/04/26 08:52:11;;;;;;;11.25;7.28;;;;;;;13.55;64.54;100691.66;1748282;79;21480;-71
2022/04/26 08:54:37;;;;;;;7.28;5.25;;;;;;;13.45;64.34;100667.31;1757725;80;21493;-71
2022/04/26 08:57:03;;;;;;;10.30;6.62;;;;;;;13.49;63.89;100683.34;1730907;80;21580;-72
2022/04/26 08:59:30;;;;;;;10.63;5.55;;;;;;;13.46;63.57;100685.06;1739593;80;21072;-71
2022/04/26 09:02:22;;;;;;;10.75;5.87;;;;;;;13.48;63.18;100687.03;1784362;79;21072;-71
2022/04/26 09:04:49;;;;;;;8.80;6.12;;;;;;;13.48;63.02;100674.14;1659406;85;21072;-72
2022/04/26 09:07:29;;;;;;;6.75;4.97;;;;;;;13.74;62.70;100691.15;1658368;85;21095;-71
2022/04/26 09:10:08;;;;;;;;;;;;;;;13.72;62.39;100690.52;1718127;79;21545;-71
2022/04/26 09:13:07;;;;;;;7.20;4.30;;;;;;;13.68;62.07;100693.23;1800059;78;20462;-71
2022/04/26 09:15:52;;;;;;;9.73;4.92;;;;;;;13.68;61.72;100686.03;1759019;81;21001;-71
2022/04/26 09:18:27;;;;;;;6.67;4.72;;;;;;;13.56;61.34;100690.66;1756437;79;21103;-71
2022/04/26 09:20:57;;;;;;;6.20;4.75;;;;;;;13.61;61.11;100689.61;1750949;79;21131;-72
2022/04/26 09:23:26;;;;;;;7.03;3.95;;;;;;;13.55;60.88;100693.00;1787063;79;20993;-71
2022/04/26 09:26:01;;;;;;;8.45;5.20;;;;;;;13.50;60.56;100691.72;1766896;79;21009;-71
2022/04/26 09:28:29;;;;;;;6.12;4.17;;;;;;;13.40;60.34;100691.16;1774605;80;20981;-71
2022/04/26 09:30:55;;;;;;;8.90;5.17;;;;;;;13.39;60.09;100697.52;1780433;80;21061;-71
2022/04/26 09:33:38;;;;;;;10.20;5.55;;;;;;;13.42;59.82;100697.14;1748530;80;21154;-71
2022/04/26 09:36:09;;;;;;;6.20;4.72;;;;;;;13.42;59.63;100691.79;1742538;80;21400;-71
2022/04/26 09:38:39;;;;;;;8.25;3.98;;;;;;;13.39;59.35;100673.40;1755598;80;20994;-71
2022/04/26 09:41:07;;;;;;;5.05;4.33;;;;;;;13.48;59.01;100691.05;1758654;80;21039;-71
2022/04/26 09:43:33;;;;;;;5.45;4.12;;;;;;;13.34;58.77;100696.37;1739852;80;21493;-71
2022/04/26 09:45:59;;;;;;;6.72;4.67;;;;;;;13.07;58.43;100690.20;1734834;80;21247;-71
2022/04/26 09:48:29;;;;;;;9.25;4.40;;;;;;;13.28;58.26;100671.15;1735128;80;21052;-71
2022/04/26 09:50:57;;;;;;;6.45;4.35;;;;;;;13.28;58.26;100671.15;1733946;80;21579;-71
2022/04/26 09:53:24;;;;;;;8.08;5.03;;;;;;;13.38;57.94;100685.13;1751855;81;21000;-71
2022/04/26 09:55:54;;;;;;;6.33;4.90;;;;;;;13.50;57.75;100681.00;1735424;80;21487;-71
2022/04/26 09:58:20;;;;;;;8.05;4.47;;;;;;;13.50;57.75;100681.00;1709602;81;21130;-71
2022/04/26 10:00:47;;;;;;;6.78;4.50;;;;;;;13.53;57.62;100682.98;1731829;81;21000;-71
2022/04/26 10:03:17;;;;;;;7.08;4.42;;;;;;;13.58;57.52;100682.75;1710379;82;21036;-71
2022/04/26 10:05:43;;;;;;;8.93;4.55;;;;;;;13.67;57.17;100680.83;1735041;82;21353;-71
2022/04/26 10:08:09;;;;;;;7.87;5.00;;;;;;;13.72;56.72;100678.45;1712245;82;21147;-71
2022/04/26 10:10:35;;;;;;;6.80;4.45;;;;;;;13.72;56.72;100678.45;1734596;81;21897;-71
2022/04/26 10:15:45;;;;;;;7.87;5.00;;;;;;;13.82;56.54;100671.80;1733749;81;21040;-71
2022/04/26 10:18:35;;;;;;;6.22;4.97;;;;;;;13.92;56.49;100686.27;1734110;81;21028;-71
2022/04/26 10:21:03;;;;;;;7.08;4.35;;;;;;;13.86;56.35;100687.02;1735471;82;21025;-71
2022/04/26 10:23:29;;;;;;;6.03;3.95;;;;;;;13.83;56.17;100689.53;1727894;81;21074;-71
2022/04/26 10:26:23;;;;;;;3.90;2.35;;;;;;;13.80;55.96;100683.20;1671531;83;21100;-71
2022/04/26 10:28:53;;;;;;;4.28;2.67;;;;;;;13.62;55.47;100685.39;1726102;81;21066;-71
2022/04/26 10:31:38;;;;;;;3.42;2.42;;;;;;;13.41;54.62;100690.11;1725880;82;20995;-71
2022/04/26 10:34:26;;;;;;;4.47;2.67;;;;;;;13.31;53.86;100692.22;1716849;81;21021;-71
2022/04/26 10:36:59;;;;;;;3.08;2.58;;;;;;;13.42;53.47;100683.75;1726949;81;21633;-71
2022/04/26 10:39:39;;;;;;;3.85;2.60;;;;;;;13.39;53.05;100668.05;1698633;84;21483;-71
2022/04/26 10:42:19;;;;;;;;;;;;;;;13.73;52.79;100687.63;1731829;81;21041;-71
2022/04/26 10:44:47;;;;;;;5.55;3.05;;;;;;;13.83;52.52;100685.52;1660213;86;20160;-71
2022/04/26 10:47:21;;;;;;;4.87;2.90;;;;;;;13.95;52.32;100684.05;1659907;85;21068;-71
2022/04/26 10:49:48;;;;;;;6.53;3.67;;;;;;;14.00;52.02;100682.16;1687532;82;21875;-71
2022/04/26 10:52:25;;;;;;;5.17;3.10;;;;;;;13.91;51.84;100663.14;1687474;83;21072;-71
2022/04/26 10:55:01;;;;;;;6.33;3.55;;;;;;;13.85;51.44;100681.31;1663747;85;21116;-71
2022/04/26 10:57:37;;;;;;;7.78;4.05;;;;;;;13.66;50.96;100673.80;1663105;83;21056;-71
2022/04/26 11:00:18;;;;;;;5.72;3.40;;;;;;;13.63;50.86;100675.51;1683097;83;21068;-71
2022/04/26 11:02:47;;;;;;;4.62;3.33;;;;;;;13.73;50.75;100682.77;1723988;81;21137;-72
2022/04/26 11:05:20;;;;;;;4.93;3.30;;;;;;;13.77;50.56;100682.23;1740079;80;21105;-71
2022/04/26 11:07:48;;;;;;;5.55;3.87;;;;;;;13.69;50.45;100657.34;1722301;82;21408;-71
2022/04/26 11:10:22;;;;;;;4.28;3.37;;;;;;;13.89;50.37;100677.26;1730053;82;21022;-71
2022/04/26 11:12:50;;;;;;;8.43;4.03;;;;;;;13.88;50.20;100680.95;1728107;82;21701;-71
2022/04/26 11:15:21;;;;;;;6.47;3.77;;;;;;;13.85;50.00;100681.31;1727287;81;21050;-71
2022/04/26 11:17:50;;;;;;;5.20;3.33;;;;;;;13.84;50.01;100687.19;1726504;81;21101;-71
2022/04/26 11:20:24;;;;;;;4.50;3.50;;;;;;;13.95;49.90;100693.44;1726920;81;21030;-71
2022/04/26 11:22:53;;;;;;;5.28;3.22;;;;;;;13.99;49.85;100691.22;1734075;80;21636;-71
2022/04/26 11:28:11;;;;;;;5.22;3.40;;;;;;;13.99;49.34;100691.22;1740105;80;21833;-71
2022/04/26 11:30:43;;;;;;;6.83;3.98;;;;;;;14.06;49.37;100692.64;1743392;81;21397;-70
2022/04/26 11:33:20;;;;;;;4.95;3.45;;;;;;;14.22;49.31;100681.20;1740169;80;21645;-70
2022/04/26 11:36:02;;;;;;;6.60;4.03;;;;;;;14.45;49.24;100690.02;1732250;80;21091;-70
2022/04/26 11:38:28;;;;;;;5.30;4.03;;;;;;;14.34;49.12;100665.00;1724973;80;21583;-70
2022/04/26 11:41:00;;;;;;;4.45;3.42;;;;;;;14.40;48.73;100689.73;1735081;80;21745;-70
2022/04/26 11:43:33;;;;;;;5.42;3.30;;;;;;;14.37;48.54;100688.77;1734475;80;21604;-71
2022/04/26 11:45:59;;;;;;;4.08;3.40;;;;;;;14.30;48.32;100687.82;1733772;80;21029;-70
2022/04/26 11:48:33;;;;;;;4.92;2.85;;;;;;;14.34;47.98;100691.83;1734962;81;21063;-71
2022/04/26 11:50:59;;;;;;;4.25;3.42;;;;;;;14.38;48.10;100689.61;1734082;80;21024;-70
2022/04/26 11:53:28;;;;;;;7.40;4.28;;;;;;;14.46;47.96;100697.02;1745821;81;21121;-71
2022/04/26 11:56:02;;;;;;;5.78;3.70;;;;;;;14.40;47.68;100697.78;1769863;81;21295;-71
2022/04/26 11:58:33;;;;;;;5.67;4.28;;;;;;;14.31;47.58;100694.86;1743438;80;21051;-70
2022/04/26 12:01:18;;;;;;;4.60;3.40;;;;;;;14.31;47.49;100688.16;1732142;82;21003;-71
2022/04/26 12:03:52;;;;;;;4.30;3.90;;;;;;;14.24;47.11;100685.89;1733123;80;21020;-72
2022/04/26 12:06:32;;;;;;;5.28;4.55;;;;;;;14.23;46.95;100681.54;1731747;81;21559;-70
2022/04/26 12:09:04;;;;;;;6.62;4.12;;;;;;;14.25;46.85;100680.02;1711128;82;21535;-70
2022/04/26 12:11:38;;;;;;;4.83;2.87;;;;;;;14.37;46.92;100682.56;1731089;82;21021;-71
2022/04/26 12:14:13;;;;;;;4.97;3.75;;;;;;;14.43;46.90;100673.25;1733479;80;21052;-70
2022/04/26 12:16:47;;;;;;;5.00;3.98;;;;;;;14.61;46.88;100680.06;1683800;84;21691;-70
2022/04/26 12:19:14;;;;;;;6.03;3.58;;;;;;;14.52;46.62;100681.20;1723491;80;21908;-71
2022/04/26 12:21:52;;;;;;;4.50;3.70;;;;;;;14.52;46.64;100674.49;1735248;81;21429;-71
2022/04/26 12:24:23;;;;;;;5.12;3.83;;;;;;;14.68;46.66;100671.06;1734724;81;21111;-71
2022/04/26 12:27:02;;;;;;;7.78;3.85;;;;;;;14.74;46.52;100669.48;1732095;82;21063;-71
2022/04/26 12:29:38;;;;;;;6.47;4.03;;;;;;;14.63;46.43;100673.50;1732137;80;21017;-71
2022/04/26 12:32:06;;;;;;;5.05;4.53;;;;;;;14.58;46.20;100675.08;1729135;80;21805;-71
2022/04/26 12:34:32;;;;;;;5.05;4.08;;;;;;;14.53;45.83;100672.14;1707921;80;21604;-71
2022/04/26 12:37:09;;;;;;;5.65;4.20;;;;;;;14.47;45.81;100665.16;1731396;81;21860;-70
2022/04/26 12:39:43;;;;;;;7.25;4.17;;;;;;;14.66;45.93;100668.25;1727827;80;21079;-71
2022/04/26 12:42:15;;;;;;;5.20;4.03;;;;;;;14.69;45.78;100660.66;1732113;80;21547;-72
2022/04/26 12:44:52;;;;;;;6.40;5.00;;;;;;;14.73;45.72;100667.82;1731979;81;21758;-70
2022/04/26 12:53:13;;;;;;;7.53;3.83;;;;;;;14.66;45.17;100668.25;1744555;79;21529;-71
2022/04/26 12:55:41;;;;;;;4.67;3.62;;;;;;;14.65;45.08;100660.70;1740540;80;21024;-71
2022/04/26 12:58:09;;;;;;;6.25;4.20;;;;;;;14.65;44.99;100654.50;1731854;82;21861;-71
2022/04/26 13:00:54;;;;;;;4.62;3.58;;;;;;;14.70;45.06;100653.44;1731912;81;21047;-71
2022/04/26 13:03:21;;;;;;;5.55;3.92;;;;;;;14.85;45.06;100650.16;1735779;81;21493;-71
2022/04/26 13:05:50;;;;;;;5.37;4.03;;;;;;;14.89;44.85;100651.45;1739155;81;21536;-71
2022/04/26 13:08:18;;;;;;;6.53;4.57;;;;;;;14.80;44.54;100656.64;1733413;82;21555;-71
2022/04/26 13:10:45;;;;;;;6.85;4.45;;;;;;;14.61;44.14;100649.19;1732029;82;21036;-72
2022/04/26 13:13:12;;;;;;;7.15;4.72;;;;;;;14.60;44.13;100654.27;1736992;82;20989;-72
2022/04/26 13:15:41;;;;;;;6.95;4.70;;;;;;;14.66;44.11;100644.94;1748401;81;21062;-71
2022/04/26 13:18:07;;;;;;;5.22;4.20;;;;;;;14.68;44.13;100646.06;1736964;81;21010;-71
2022/04/26 13:20:33;;;;;;;5.37;4.08;;;;;;;14.76;43.99;100652.66;1731504;82;21014;-71
2022/04/26 13:22:59;;;;;;;5.85;4.10;;;;;;;14.80;43.90;100647.23;1736506;82;21172;-71
2022/04/26 13:25:25;;;;;;;6.62;4.28;;;;;;;14.76;43.78;100651.33;1727136;81;20998;-71
2022/04/26 13:27:52;;;;;;;6.30;4.20;;;;;;;14.75;43.76;100639.75;1732828;80;21026;-71
2022/04/26 13:30:18;;;;;;;7.42;4.97;;;;;;;14.88;43.85;100636.38;1735048;80;21049;-71
2022/04/26 13:32:44;;;;;;;4.83;4.17;;;;;;;14.99;43.91;100632.65;1717477;82;21076;-71
2022/04/26 13:35:10;;;;;;;6.47;4.17;;;;;;;14.95;43.88;100625.19;1735942;80;21153;-70
2022/04/26 13:37:36;;;;;;;6.35;4.30;;;;;;;14.89;43.87;100635.34;1738377;80;20998;-71
2022/04/26 13:40:03;;;;;;;6.55;4.03;;;;;;;14.98;43.92;100628.83;1737684;80;21003;-70
2022/04/26 13:42:35;;;;;;;7.15;4.50;;;;;;;15.00;43.69;100630.80;1727903;81;21013;-70
2022/04/26 13:44:59;;;;;;;6.50;4.33;;;;;;;14.89;43.56;100632.14;1748938;80;21046;-70
2022/04/26 13:47:26;;;;;;;5.55;4.35;;;;;;;14.99;43.50;100635.84;1760759;80;22145;-70
2022/04/26 13:49:52;;;;;;;6.90;4.33;;;;;;;15.00;43.30;100629.45;1759515;80;20978;-70
2022/04/26 13:52:21;;;;;;;7.58;5.17;;;;;;;14.96;43.20;100632.20;1690236;84;33675;-70
2022/04/26 13:54:47;;;;;;;6.67;4.58;;;;;;;14.88;43.09;100629.12;1704709;83;21019;-71
2022/04/26 13:57:13;;;;;;;5.80;4.83;;;;;;;14.95;43.10;100626.53;1699437;84;21097;-71
2022/04/26 13:59:39;;;;;;;4.97;3.80;;;;;;;14.92;43.05;100622.36;1729789;81;21139;-71
2022/04/26 14:02:06;;;;;;;5.37;4.08;;;;;;;15.12;43.07;100626.58;1728576;83;20986;-71
2022/04/26 14:04:32;;;;;;;5.20;4.12;;;;;;;15.17;43.00;100625.47;1722794;83;21058;-71
2022/04/26 14:06:58;;;;;;;5.72;4.17;;;;;;;15.24;42.99;100627.70;1719545;81;21100;-71
2022/04/26 14:09:24;;;;;;;7.95;4.83;;;;;;;15.34;43.00;100624.16;1717273;81;21102;-71
2022/04/26 14:11:51;;;;;;;7.12;5.08;;;;;;;15.31;42.92;100618.34;1717603;83;21064;-71
2022/04/26 14:22:32;;;;;;;6.25;5.10;;;;;;;15.10;43.09;100624.58;1718885;81;21078;-71
2022/04/26 14:25:02;;;;;;;10.63;5.25;;;;;;;15.05;43.18;100621.66;1728592;81;21148;-71
2022/04/26 14:27:29;;;;;;;9.90;4.97;;;;;;;15.06;43.25;100617.93;1730938;81;21026;-70
2022/04/26 14:29:55;;;;;;;5.62;4.40;;;;;;;15.08;43.24;100616.41;1728628;81;20989;-70
2022/04/26 14:32:21;;;;;;;5.50;5.00;;;;;;;15.14;43.21;100621.83;1763485;81;21554;-71
2022/04/26 14:34:47;;;;;;;9.98;4.92;;;;;;;15.17;43.11;100617.41;1762068;81;21019;-70
2022/04/26 14:37:13;;;;;;;7.45;5.05;;;;;;;15.06;43.00;100620.62;1747316;80;21089;-71
2022/04/26 14:39:39;;;;;;;5.62;4.55;;;;;;;15.05;42.97;100614.95;1727326;81;21013;-71
2022/04/26 14:42:05;;;;;;;5.85;4.60;;;;;;;15.19;43.01;100613.20;1731085;81;21445;-71
2022/04/26 14:44:32;;;;;;;8.63;4.40;;;;;;;15.17;42.97;100612.03;1764903;81;21048;-71
2022/04/26 14:46:58;;;;;;;5.83;4.33;;;;;;;15.10;42.96;100616.52;1765191;79;21505;-71
2022/04/26 14:49:24;;;;;;;9.75;4.15;;;;;;;14.99;42.90;100619.22;1748711;81;21933;-71
2022/04/26 14:51:51;;;;;;;5.58;4.20;;;;;;;14.84;42.81;100617.65;1727654;82;21022;-71
2022/04/26 14:54:17;;;;;;;8.13;4.30;;;;;;;14.74;42.77;100615.80;1732021;81;21503;-71
2022/04/26 14:56:46;;;;;;;6.53;4.20;;;;;;;14.67;42.75;100616.24;1747318;81;21490;-71
2022/04/26 14:59:13;;;;;;;6.80;4.05;;;;;;;14.68;42.77;100614.69;1732490;81;21543;-71
2022/04/26 15:01:40;;;;;;;6.25;4.33;;;;;;;14.73;42.77;100617.64;1733554;81;21433;-70
2022/04/26 15:04:06;;;;;;;7.22;4.55;;;;;;;14.83;42.72;100609.27;1738882;81;21023;-71
2022/04/26 15:06:32;;;;;;;12.28;7.08;;;;;;;14.94;42.66;100611.44;1742106;81;20905;-71
2022/04/26 15:11:43;;;;;;;17.55;10.30;;;;;;;15.04;42.50;100620.50;1715381;83;21053;-70
2022/04/26 15:16:54;;;;;;;12.13;7.97;;;;;;;14.84;42.51;100622.51;1726603;81;21420;-70
2022/04/26 15:19:20;;;;;;;12.13;5.97;;;;;;;14.89;42.53;100616.54;1748828;81;21049;-71
2022/04/26 15:21:46;;;;;;;8.48;5.72;;;;;;;14.91;42.55;100619.88;1763267;81;20977;-71
2022/04/26 15:24:13;;;;;;;7.65;5.37;;;;;;;14.94;42.54;100622.18;1735654;81;21104;-71
2022/04/26 15:26:39;;;;;;;5.83;4.55;;;;;;;14.95;42.49;100621.16;1727941;82;21510;-71
2022/04/26 15:29:06;;;;;;;5.10;4.37;;;;;;;14.90;42.45;100620.90;1742466;80;21008;-71
2022/04/26 15:31:33;;;;;;;8.18;4.62;;;;;;;14.85;42.41;100626.00;1753764;80;20976;-71
2022/04/26 15:33:59;;;;;;;14.20;5.40;;;;;;;14.78;42.40;100626.45;1741314;80;21037;-71
2022/04/26 15:36:25;;;;;;;7.17;4.80;;;;;;;14.80;42.43;100621.73;1738874;80;21087;-71
2022/04/26 15:38:58;;;;;;;10.28;4.22;;;;;;;14.80;42.46;100620.39;1738052;80;21018;-71
2022/04/26 15:41:19;;;;;;;8.55;4.70;;;;;;;14.73;42.50;100624.36;1760279;80;21045;-70
2022/04/26 15:43:45;;;;;;;19.87;16.12;;;;;;;14.68;42.52;100624.59;1737810;82;21432;-70
2022/04/26 15:46:11;;;;;;;7.15;4.58;;;;;;;14.63;42.55;100623.84;1735832;80;21020;-70
2022/04/26 15:48:38;;;;;;;6.12;4.35;;;;;;;14.55;42.57;100629.33;1734828;80;21036;-71